メインページ
METAR-TAF:

METAR-TAF

空港 :

Oakland County International Airport

ポンティアク, ミシガン州, アメリカ合衆国

緯度: 42-39-47N, 経度: 083-24-36W, 海抜: 299m

現時点の気象観測

当レポートは34分前の17:19(UTC)に作成
無風
気温 24°C
湿度 74%
気圧 1015 hPa
視程: 16.1km
高度1600ftの曇り

METAR: KPTK 211719Z 00000KT 10SM OVC016 24/19 A2997 RMK AO2 T02390194 $

時間: 13:53 (17:53 UTC)

予報

当レポートは33分前の17:20(UTC)に作成
予報は21日の 18時(UTC)から 22日の 18時(UTC)まで有効
変向風 4kt
視程: 10km
高度1500ftの雲は散在している
高度3500ftの千切れ雲あり
高度10000ftの千切れ雲あり
21日の 18時(UTC)から 21日の 20時(UTC)まで一時的に
高度1800ftの千切れ雲あり
高度3500ftの千切れ雲あり
高度10000ftの千切れ雲あり
21日の 2000時(UTC)から
北東の風 6kt
視程: 10km
高度3500ftの千切れ雲あり
高度10000ftの千切れ雲あり
22日の 0100時(UTC)から
北東の風 4kt
視程: 10km
高度10000ftの雲は散在している
高度25000ftの千切れ雲あり
22日の 1500時(UTC)から
の風 9kt
視程: 10km
高度25000ftの雲は散在している

TAF: KPTK 211720Z 2118/2218 VRB04KT P6SM SCT015 BKN035 BKN100 TEMPO 2118/2120 BKN018 BKN035 BKN100 FM212000 04006KT P6SM BKN035 BKN100 FM220100 04004KT P6SM SCT100 BKN250 FM221500 35009KT P6SM SCT250

4,000以上の空港の気象観測と天気予報(METAR報とTAF報)

利用可能な観測所は地図上に黄色い丸と赤い丸で示す。

丸の上にカーソルを重ねると観測所名を参照できる。

次にクリックすると気象観測と天気予報を参照できる。

マップの切り替え:黒色「×」印の緑ボタンをクリックして拡大、「-」印の緑ボタンをクリックして縮小、緑色の三角印をクリックして隣りの地図に切り替え


METAR-TAF: